sensor_id;sensor_type;location;lat;lon;timestamp;P1;durP1;ratioP1;P2;durP2;ratioP2
4323;SDS011;2175;51.018;6.994;2022-09-25T00:01:03;29.87;;;23.80;;
4323;SDS011;2175;51.018;6.994;2022-09-25T00:03:30;34.33;;;25.23;;
4323;SDS011;2175;51.018;6.994;2022-09-25T00:06:04;31.80;;;24.47;;
4323;SDS011;2175;51.018;6.994;2022-09-25T00:08:36;32.07;;;24.97;;
4323;SDS011;2175;51.018;6.994;2022-09-25T00:11:06;34.97;;;25.23;;
4323;SDS011;2175;51.018;6.994;2022-09-25T00:13:33;34.97;;;26.50;;
4323;SDS011;2175;51.018;6.994;2022-09-25T00:15:59;33.53;;;26.43;;
4323;SDS011;2175;51.018;6.994;2022-09-25T00:18:27;36.90;;;26.30;;
4323;SDS011;2175;51.018;6.994;2022-09-25T00:21:12;35.17;;;25.97;;
4323;SDS011;2175;51.018;6.994;2022-09-25T00:23:38;30.80;;;25.03;;
4323;SDS011;2175;51.018;6.994;2022-09-25T00:26:05;35.90;;;27.47;;
4323;SDS011;2175;51.018;6.994;2022-09-25T00:28:33;36.20;;;26.37;;
4323;SDS011;2175;51.018;6.994;2022-09-25T00:31:02;35.47;;;28.23;;
4323;SDS011;2175;51.018;6.994;2022-09-25T00:33:29;39.27;;;28.13;;
4323;SDS011;2175;51.018;6.994;2022-09-25T00:36:06;36.43;;;28.30;;
4323;SDS011;2175;51.018;6.994;2022-09-25T00:38:34;44.67;;;29.13;;
4323;SDS011;2175;51.018;6.994;2022-09-25T00:41:00;35.00;;;27.60;;
4323;SDS011;2175;51.018;6.994;2022-09-25T00:46:24;35.47;;;27.50;;
4323;SDS011;2175;51.018;6.994;2022-09-25T00:51:53;36.37;;;28.10;;
4323;SDS011;2175;51.018;6.994;2022-09-25T00:54:37;36.07;;;28.77;;
4323;SDS011;2175;51.018;6.994;2022-09-25T00:57:07;36.37;;;29.07;;
4323;SDS011;2175;51.018;6.994;2022-09-25T00:59:37;39.23;;;30.53;;
4323;SDS011;2175;51.018;6.994;2022-09-25T01:02:07;39.10;;;28.80;;
4323;SDS011;2175;51.018;6.994;2022-09-25T01:04:38;41.73;;;30.67;;
4323;SDS011;2175;51.018;6.994;2022-09-25T01:07:06;38.57;;;30.50;;
4323;SDS011;2175;51.018;6.994;2022-09-25T01:09:34;38.47;;;29.00;;
4323;SDS011;2175;51.018;6.994;2022-09-25T01:12:00;39.50;;;31.93;;
4323;SDS011;2175;51.018;6.994;2022-09-25T01:14:26;37.53;;;30.90;;
4323;SDS011;2175;51.018;6.994;2022-09-25T01:22:19;41.30;;;31.80;;
4323;SDS011;2175;51.018;6.994;2022-09-25T01:30:41;43.50;;;31.43;;
4323;SDS011;2175;51.018;6.994;2022-09-25T01:36:00;44.40;;;31.33;;
4323;SDS011;2175;51.018;6.994;2022-09-25T01:38:43;41.47;;;31.67;;
4323;SDS011;2175;51.018;6.994;2022-09-25T01:41:26;43.53;;;31.63;;
4323;SDS011;2175;51.018;6.994;2022-09-25T01:44:07;43.33;;;32.77;;
4323;SDS011;2175;51.018;6.994;2022-09-25T01:46:43;38.17;;;30.60;;
4323;SDS011;2175;51.018;6.994;2022-09-25T01:49:18;41.67;;;30.63;;
4323;SDS011;2175;51.018;6.994;2022-09-25T01:51:51;41.70;;;31.33;;
4323;SDS011;2175;51.018;6.994;2022-09-25T01:57:03;42.23;;;31.03;;
4323;SDS011;2175;51.018;6.994;2022-09-25T01:59:46;42.03;;;30.77;;
4323;SDS011;2175;51.018;6.994;2022-09-25T02:02:21;43.43;;;31.30;;
4323;SDS011;2175;51.018;6.994;2022-09-25T02:04:55;40.80;;;29.00;;
4323;SDS011;2175;51.018;6.994;2022-09-25T02:07:37;39.10;;;30.07;;
4323;SDS011;2175;51.018;6.994;2022-09-25T02:10:58;36.77;;;28.00;;
4323;SDS011;2175;51.018;6.994;2022-09-25T02:13:10;40.23;;;28.40;;
4323;SDS011;2175;51.018;6.994;2022-09-25T02:15:42;44.53;;;29.17;;
4323;SDS011;2175;51.018;6.994;2022-09-25T02:18:17;45.23;;;30.40;;
4323;SDS011;2175;51.018;6.994;2022-09-25T02:23:51;37.20;;;28.17;;
4323;SDS011;2175;51.018;6.994;2022-09-25T02:26:27;40.53;;;28.43;;
4323;SDS011;2175;51.018;6.994;2022-09-25T02:28:55;38.70;;;28.27;;
4323;SDS011;2175;51.018;6.994;2022-09-25T02:31:22;46.33;;;28.50;;
4323;SDS011;2175;51.018;6.994;2022-09-25T02:33:54;41.60;;;27.20;;
4323;SDS011;2175;51.018;6.994;2022-09-25T02:36:20;37.73;;;26.70;;
4323;SDS011;2175;51.018;6.994;2022-09-25T02:38:48;45.97;;;26.53;;
4323;SDS011;2175;51.018;6.994;2022-09-25T02:41:18;42.00;;;26.67;;
4323;SDS011;2175;51.018;6.994;2022-09-25T02:44:20;39.47;;;27.77;;
4323;SDS011;2175;51.018;6.994;2022-09-25T02:49:28;38.23;;;26.17;;
4323;SDS011;2175;51.018;6.994;2022-09-25T02:52:03;36.70;;;24.93;;
4323;SDS011;2175;51.018;6.994;2022-09-25T02:57:05;31.93;;;20.60;;
4323;SDS011;2175;51.018;6.994;2022-09-25T02:59:52;33.50;;;20.57;;
4323;SDS011;2175;51.018;6.994;2022-09-25T03:02:22;30.20;;;18.30;;
4323;SDS011;2175;51.018;6.994;2022-09-25T03:04:50;22.77;;;16.60;;
4323;SDS011;2175;51.018;6.994;2022-09-25T03:07:17;32.40;;;16.10;;
4323;SDS011;2175;51.018;6.994;2022-09-25T03:09:44;22.60;;;14.83;;
4323;SDS011;2175;51.018;6.994;2022-09-25T03:12:11;24.00;;;14.73;;
4323;SDS011;2175;51.018;6.994;2022-09-25T03:14:37;22.00;;;14.50;;
4323;SDS011;2175;51.018;6.994;2022-09-25T03:17:04;22.10;;;13.23;;
4323;SDS011;2175;51.018;6.994;2022-09-25T03:19:32;23.23;;;14.50;;
4323;SDS011;2175;51.018;6.994;2022-09-25T03:21:59;17.57;;;13.10;;
4323;SDS011;2175;51.018;6.994;2022-09-25T03:24:25;24.03;;;13.50;;
4323;SDS011;2175;51.018;6.994;2022-09-25T03:26:51;16.90;;;11.97;;
4323;SDS011;2175;51.018;6.994;2022-09-25T03:29:18;24.33;;;10.90;;
4323;SDS011;2175;51.018;6.994;2022-09-25T03:31:45;23.93;;;12.10;;
4323;SDS011;2175;51.018;6.994;2022-09-25T03:34:12;21.40;;;10.67;;
4323;SDS011;2175;51.018;6.994;2022-09-25T03:36:39;24.40;;;10.40;;
4323;SDS011;2175;51.018;6.994;2022-09-25T03:39:05;23.30;;;9.83;;
4323;SDS011;2175;51.018;6.994;2022-09-25T03:41:32;19.50;;;8.93;;
4323;SDS011;2175;51.018;6.994;2022-09-25T03:43:59;18.00;;;8.90;;
4323;SDS011;2175;51.018;6.994;2022-09-25T03:46:27;17.97;;;8.93;;
4323;SDS011;2175;51.018;6.994;2022-09-25T03:48:55;23.90;;;9.43;;
4323;SDS011;2175;51.018;6.994;2022-09-25T03:51:21;12.03;;;8.10;;
4323;SDS011;2175;51.018;6.994;2022-09-25T03:53:48;14.70;;;8.77;;
4323;SDS011;2175;51.018;6.994;2022-09-25T03:56:15;14.77;;;8.07;;
4323;SDS011;2175;51.018;6.994;2022-09-25T03:58:44;16.17;;;7.60;;
4323;SDS011;2175;51.018;6.994;2022-09-25T04:01:10;16.40;;;7.90;;
4323;SDS011;2175;51.018;6.994;2022-09-25T04:03:36;14.40;;;6.40;;
4323;SDS011;2175;51.018;6.994;2022-09-25T04:06:03;10.90;;;5.80;;
4323;SDS011;2175;51.018;6.994;2022-09-25T04:08:30;12.17;;;4.63;;
4323;SDS011;2175;51.018;6.994;2022-09-25T04:10:57;12.97;;;4.87;;
4323;SDS011;2175;51.018;6.994;2022-09-25T04:13:24;10.63;;;4.03;;
4323;SDS011;2175;51.018;6.994;2022-09-25T04:15:53;11.10;;;4.10;;
4323;SDS011;2175;51.018;6.994;2022-09-25T04:18:20;11.70;;;3.90;;
4323;SDS011;2175;51.018;6.994;2022-09-25T04:20:47;12.00;;;4.20;;
4323;SDS011;2175;51.018;6.994;2022-09-25T04:23:13;17.40;;;4.00;;
4323;SDS011;2175;51.018;6.994;2022-09-25T04:25:38;16.50;;;4.17;;
4323;SDS011;2175;51.018;6.994;2022-09-25T04:28:04;15.53;;;3.73;;
4323;SDS011;2175;51.018;6.994;2022-09-25T04:30:31;12.57;;;4.23;;
4323;SDS011;2175;51.018;6.994;2022-09-25T04:32:58;13.40;;;4.50;;
4323;SDS011;2175;51.018;6.994;2022-09-25T04:35:42;14.73;;;4.40;;
4323;SDS011;2175;51.018;6.994;2022-09-25T04:38:08;12.73;;;4.23;;
4323;SDS011;2175;51.018;6.994;2022-09-25T04:40:35;10.63;;;4.27;;
4323;SDS011;2175;51.018;6.994;2022-09-25T04:43:01;13.83;;;4.07;;
4323;SDS011;2175;51.018;6.994;2022-09-25T04:45:29;16.63;;;4.40;;
4323;SDS011;2175;51.018;6.994;2022-09-25T04:47:57;13.10;;;4.10;;
4323;SDS011;2175;51.018;6.994;2022-09-25T04:50:25;12.37;;;3.80;;
4323;SDS011;2175;51.018;6.994;2022-09-25T04:52:52;13.90;;;3.90;;
4323;SDS011;2175;51.018;6.994;2022-09-25T04:55:18;12.23;;;4.00;;
4323;SDS011;2175;51.018;6.994;2022-09-25T04:57:49;12.03;;;3.90;;
4323;SDS011;2175;51.018;6.994;2022-09-25T05:00:16;15.67;;;4.20;;
4323;SDS011;2175;51.018;6.994;2022-09-25T05:02:43;14.63;;;4.50;;
4323;SDS011;2175;51.018;6.994;2022-09-25T05:05:09;13.20;;;4.07;;
4323;SDS011;2175;51.018;6.994;2022-09-25T05:07:35;13.60;;;3.50;;
4323;SDS011;2175;51.018;6.994;2022-09-25T05:10:00;12.17;;;3.03;;
4323;SDS011;2175;51.018;6.994;2022-09-25T05:12:26;15.47;;;3.77;;
4323;SDS011;2175;51.018;6.994;2022-09-25T05:14:51;11.43;;;4.00;;
4323;SDS011;2175;51.018;6.994;2022-09-25T05:17:17;17.13;;;4.40;;
4323;SDS011;2175;51.018;6.994;2022-09-25T05:19:43;18.77;;;4.10;;
4323;SDS011;2175;51.018;6.994;2022-09-25T05:22:08;11.07;;;3.60;;
4323;SDS011;2175;51.018;6.994;2022-09-25T05:24:34;9.87;;;3.23;;
4323;SDS011;2175;51.018;6.994;2022-09-25T05:26:59;11.80;;;3.40;;
4323;SDS011;2175;51.018;6.994;2022-09-25T05:29:25;11.20;;;3.67;;
4323;SDS011;2175;51.018;6.994;2022-09-25T05:31:51;18.33;;;3.90;;
4323;SDS011;2175;51.018;6.994;2022-09-25T05:34:16;13.40;;;3.70;;
4323;SDS011;2175;51.018;6.994;2022-09-25T05:36:42;11.60;;;3.87;;
4323;SDS011;2175;51.018;6.994;2022-09-25T05:39:08;9.27;;;3.70;;
4323;SDS011;2175;51.018;6.994;2022-09-25T05:41:37;15.70;;;3.70;;
4323;SDS011;2175;51.018;6.994;2022-09-25T05:44:03;13.93;;;3.50;;
4323;SDS011;2175;51.018;6.994;2022-09-25T05:46:34;10.00;;;3.50;;
4323;SDS011;2175;51.018;6.994;2022-09-25T05:49:00;7.43;;;3.07;;
4323;SDS011;2175;51.018;6.994;2022-09-25T05:51:25;11.73;;;3.60;;
4323;SDS011;2175;51.018;6.994;2022-09-25T05:53:52;12.00;;;3.00;;
4323;SDS011;2175;51.018;6.994;2022-09-25T05:56:18;9.20;;;2.47;;
4323;SDS011;2175;51.018;6.994;2022-09-25T05:58:44;11.70;;;3.17;;
4323;SDS011;2175;51.018;6.994;2022-09-25T06:01:11;10.13;;;2.90;;
4323;SDS011;2175;51.018;6.994;2022-09-25T06:03:37;7.27;;;2.60;;
4323;SDS011;2175;51.018;6.994;2022-09-25T06:06:03;12.37;;;2.83;;
4323;SDS011;2175;51.018;6.994;2022-09-25T06:08:30;10.40;;;2.80;;
4323;SDS011;2175;51.018;6.994;2022-09-25T06:10:56;10.27;;;2.70;;
4323;SDS011;2175;51.018;6.994;2022-09-25T06:13:22;8.63;;;3.03;;
4323;SDS011;2175;51.018;6.994;2022-09-25T06:15:52;11.40;;;3.13;;
4323;SDS011;2175;51.018;6.994;2022-09-25T06:18:18;14.67;;;3.97;;
4323;SDS011;2175;51.018;6.994;2022-09-25T06:20:45;13.07;;;4.30;;
4323;SDS011;2175;51.018;6.994;2022-09-25T06:23:11;21.37;;;5.67;;
4323;SDS011;2175;51.018;6.994;2022-09-25T06:25:37;18.47;;;4.90;;
4323;SDS011;2175;51.018;6.994;2022-09-25T06:28:03;20.47;;;4.90;;
4323;SDS011;2175;51.018;6.994;2022-09-25T06:30:30;16.80;;;5.23;;
4323;SDS011;2175;51.018;6.994;2022-09-25T06:33:08;15.03;;;5.80;;
4323;SDS011;2175;51.018;6.994;2022-09-25T06:35:40;24.60;;;7.03;;
4323;SDS011;2175;51.018;6.994;2022-09-25T06:38:07;27.60;;;11.20;;
4323;SDS011;2175;51.018;6.994;2022-09-25T06:40:33;22.30;;;9.80;;
4323;SDS011;2175;51.018;6.994;2022-09-25T06:42:59;25.30;;;10.40;;
4323;SDS011;2175;51.018;6.994;2022-09-25T06:45:27;23.63;;;10.00;;
4323;SDS011;2175;51.018;6.994;2022-09-25T06:48:03;37.13;;;11.90;;
4323;SDS011;2175;51.018;6.994;2022-09-25T06:50:36;39.87;;;13.97;;
4323;SDS011;2175;51.018;6.994;2022-09-25T06:53:09;32.43;;;12.40;;
4323;SDS011;2175;51.018;6.994;2022-09-25T06:55:35;29.33;;;10.43;;
4323;SDS011;2175;51.018;6.994;2022-09-25T06:58:02;27.37;;;9.97;;
4323;SDS011;2175;51.018;6.994;2022-09-25T07:00:30;37.70;;;13.03;;
4323;SDS011;2175;51.018;6.994;2022-09-25T07:02:56;30.97;;;11.33;;
4323;SDS011;2175;51.018;6.994;2022-09-25T07:05:41;26.07;;;8.37;;
4323;SDS011;2175;51.018;6.994;2022-09-25T07:08:09;31.63;;;11.23;;
4323;SDS011;2175;51.018;6.994;2022-09-25T07:10:37;28.33;;;9.50;;
4323;SDS011;2175;51.018;6.994;2022-09-25T07:13:02;32.53;;;11.23;;
4323;SDS011;2175;51.018;6.994;2022-09-25T07:15:28;34.80;;;12.00;;
4323;SDS011;2175;51.018;6.994;2022-09-25T07:17:54;23.20;;;8.50;;
4323;SDS011;2175;51.018;6.994;2022-09-25T07:20:20;23.07;;;8.43;;
4323;SDS011;2175;51.018;6.994;2022-09-25T07:22:46;28.90;;;10.60;;
4323;SDS011;2175;51.018;6.994;2022-09-25T07:25:12;20.83;;;8.50;;
4323;SDS011;2175;51.018;6.994;2022-09-25T07:27:38;20.33;;;7.20;;
4323;SDS011;2175;51.018;6.994;2022-09-25T07:30:04;18.70;;;6.57;;
4323;SDS011;2175;51.018;6.994;2022-09-25T07:32:31;16.47;;;6.30;;
4323;SDS011;2175;51.018;6.994;2022-09-25T07:34:57;18.53;;;6.53;;
4323;SDS011;2175;51.018;6.994;2022-09-25T07:37:23;13.93;;;5.13;;
4323;SDS011;2175;51.018;6.994;2022-09-25T07:39:49;15.70;;;5.10;;
4323;SDS011;2175;51.018;6.994;2022-09-25T07:42:14;14.83;;;4.90;;
4323;SDS011;2175;51.018;6.994;2022-09-25T07:44:41;12.40;;;4.53;;
4323;SDS011;2175;51.018;6.994;2022-09-25T07:47:06;16.60;;;5.43;;
4323;SDS011;2175;51.018;6.994;2022-09-25T07:49:33;15.10;;;4.60;;
4323;SDS011;2175;51.018;6.994;2022-09-25T07:51:59;19.93;;;5.03;;
4323;SDS011;2175;51.018;6.994;2022-09-25T07:54:26;12.07;;;4.60;;
4323;SDS011;2175;51.018;6.994;2022-09-25T07:56:51;19.93;;;5.27;;
4323;SDS011;2175;51.018;6.994;2022-09-25T07:59:17;17.67;;;5.30;;
4323;SDS011;2175;51.018;6.994;2022-09-25T08:01:42;12.17;;;4.43;;
4323;SDS011;2175;51.018;6.994;2022-09-25T08:04:08;18.37;;;4.63;;
4323;SDS011;2175;51.018;6.994;2022-09-25T08:06:34;20.63;;;4.33;;
4323;SDS011;2175;51.018;6.994;2022-09-25T08:09:02;16.73;;;4.77;;
4323;SDS011;2175;51.018;6.994;2022-09-25T08:11:28;17.77;;;4.53;;
4323;SDS011;2175;51.018;6.994;2022-09-25T08:13:54;20.67;;;4.43;;
4323;SDS011;2175;51.018;6.994;2022-09-25T08:16:20;11.17;;;3.70;;
4323;SDS011;2175;51.018;6.994;2022-09-25T08:18:47;15.80;;;3.77;;
4323;SDS011;2175;51.018;6.994;2022-09-25T08:21:14;17.53;;;3.60;;
4323;SDS011;2175;51.018;6.994;2022-09-25T08:23:41;15.13;;;3.90;;
4323;SDS011;2175;51.018;6.994;2022-09-25T08:26:09;11.20;;;3.90;;
4323;SDS011;2175;51.018;6.994;2022-09-25T08:28:35;16.57;;;3.63;;
4323;SDS011;2175;51.018;6.994;2022-09-25T08:31:01;13.27;;;3.53;;
4323;SDS011;2175;51.018;6.994;2022-09-25T08:33:29;12.03;;;3.17;;
4323;SDS011;2175;51.018;6.994;2022-09-25T08:35:55;10.73;;;3.30;;
4323;SDS011;2175;51.018;6.994;2022-09-25T08:38:23;10.23;;;3.07;;
4323;SDS011;2175;51.018;6.994;2022-09-25T08:40:50;14.23;;;2.83;;
4323;SDS011;2175;51.018;6.994;2022-09-25T08:43:21;14.70;;;3.43;;
4323;SDS011;2175;51.018;6.994;2022-09-25T08:45:49;12.03;;;2.70;;
4323;SDS011;2175;51.018;6.994;2022-09-25T08:48:36;9.00;;;2.30;;
4323;SDS011;2175;51.018;6.994;2022-09-25T08:51:27;11.03;;;2.90;;
4323;SDS011;2175;51.018;6.994;2022-09-25T08:54:05;9.73;;;2.90;;
4323;SDS011;2175;51.018;6.994;2022-09-25T08:56:31;12.90;;;2.87;;
4323;SDS011;2175;51.018;6.994;2022-09-25T08:59:09;11.60;;;2.90;;
4323;SDS011;2175;51.018;6.994;2022-09-25T09:01:49;10.30;;;2.60;;
4323;SDS011;2175;51.018;6.994;2022-09-25T09:04:23;11.17;;;2.63;;
4323;SDS011;2175;51.018;6.994;2022-09-25T09:06:56;10.10;;;2.80;;
4323;SDS011;2175;51.018;6.994;2022-09-25T09:09:41;18.00;;;4.87;;
4323;SDS011;2175;51.018;6.994;2022-09-25T09:14:50;27.57;;;7.67;;
4323;SDS011;2175;51.018;6.994;2022-09-25T09:17:25;25.43;;;6.77;;
4323;SDS011;2175;51.018;6.994;2022-09-25T09:20:10;21.90;;;7.33;;
4323;SDS011;2175;51.018;6.994;2022-09-25T09:22:48;17.50;;;5.10;;
4323;SDS011;2175;51.018;6.994;2022-09-25T09:25:39;16.13;;;3.20;;
4323;SDS011;2175;51.018;6.994;2022-09-25T09:28:45;11.17;;;2.90;;
4323;SDS011;2175;51.018;6.994;2022-09-25T09:39:50;11.80;;;3.30;;
4323;SDS011;2175;51.018;6.994;2022-09-25T09:48:08;9.57;;;2.53;;
4323;SDS011;2175;51.018;6.994;2022-09-25T09:50:51;15.13;;;2.53;;
4323;SDS011;2175;51.018;6.994;2022-09-25T09:56:23;7.97;;;2.50;;
4323;SDS011;2175;51.018;6.994;2022-09-25T10:01:29;17.53;;;6.23;;
4323;SDS011;2175;51.018;6.994;2022-09-25T10:04:09;10.73;;;3.20;;
4323;SDS011;2175;51.018;6.994;2022-09-25T10:06:44;7.10;;;2.27;;
4323;SDS011;2175;51.018;6.994;2022-09-25T10:09:14;10.17;;;2.27;;
4323;SDS011;2175;51.018;6.994;2022-09-25T10:11:40;10.23;;;2.27;;
4323;SDS011;2175;51.018;6.994;2022-09-25T10:14:09;7.00;;;2.13;;
4323;SDS011;2175;51.018;6.994;2022-09-25T10:16:39;7.50;;;2.23;;
4323;SDS011;2175;51.018;6.994;2022-09-25T10:21:51;10.30;;;2.20;;
4323;SDS011;2175;51.018;6.994;2022-09-25T10:27:39;12.80;;;2.50;;
4323;SDS011;2175;51.018;6.994;2022-09-25T10:32:54;9.00;;;2.10;;
4323;SDS011;2175;51.018;6.994;2022-09-25T10:35:39;11.00;;;1.83;;
4323;SDS011;2175;51.018;6.994;2022-09-25T10:41:04;8.40;;;2.10;;
4323;SDS011;2175;51.018;6.994;2022-09-25T10:43:53;11.27;;;2.37;;
4323;SDS011;2175;51.018;6.994;2022-09-25T10:46:31;10.30;;;2.60;;
4323;SDS011;2175;51.018;6.994;2022-09-25T10:49:21;10.40;;;2.70;;
4323;SDS011;2175;51.018;6.994;2022-09-25T10:52:19;10.03;;;2.30;;
4323;SDS011;2175;51.018;6.994;2022-09-25T10:54:45;9.40;;;2.30;;
4323;SDS011;2175;51.018;6.994;2022-09-25T10:57:30;8.60;;;2.10;;
4323;SDS011;2175;51.018;6.994;2022-09-25T11:00:03;8.93;;;2.73;;
4323;SDS011;2175;51.018;6.994;2022-09-25T11:02:40;7.70;;;2.50;;
4323;SDS011;2175;51.018;6.994;2022-09-25T11:05:15;6.33;;;2.50;;
4323;SDS011;2175;51.018;6.994;2022-09-25T11:07:51;6.67;;;2.10;;
4323;SDS011;2175;51.018;6.994;2022-09-25T11:10:20;5.20;;;1.60;;
4323;SDS011;2175;51.018;6.994;2022-09-25T11:12:48;5.33;;;2.03;;
4323;SDS011;2175;51.018;6.994;2022-09-25T11:15:16;5.70;;;1.90;;
4323;SDS011;2175;51.018;6.994;2022-09-25T11:17:44;6.70;;;1.90;;
4323;SDS011;2175;51.018;6.994;2022-09-25T11:22:40;7.40;;;2.23;;
4323;SDS011;2175;51.018;6.994;2022-09-25T11:25:13;6.00;;;1.90;;
4323;SDS011;2175;51.018;6.994;2022-09-25T11:27:46;5.17;;;1.80;;
4323;SDS011;2175;51.018;6.994;2022-09-25T11:30:20;6.30;;;1.63;;
4323;SDS011;2175;51.018;6.994;2022-09-25T11:35:40;6.67;;;2.07;;
4323;SDS011;2175;51.018;6.994;2022-09-25T11:41:19;10.90;;;3.17;;
4323;SDS011;2175;51.018;6.994;2022-09-25T11:44:09;8.50;;;2.90;;
4323;SDS011;2175;51.018;6.994;2022-09-25T11:54:49;6.27;;;2.50;;
4323;SDS011;2175;51.018;6.994;2022-09-25T11:57:19;10.00;;;2.50;;
4323;SDS011;2175;51.018;6.994;2022-09-25T12:08:52;12.57;;;2.13;;
4323;SDS011;2175;51.018;6.994;2022-09-25T12:11:27;7.13;;;2.60;;
4323;SDS011;2175;51.018;6.994;2022-09-25T12:14:21;7.40;;;2.10;;
4323;SDS011;2175;51.018;6.994;2022-09-25T12:16:53;6.90;;;2.30;;
4323;SDS011;2175;51.018;6.994;2022-09-25T12:31:05;6.57;;;2.60;;
4323;SDS011;2175;51.018;6.994;2022-09-25T12:36:52;3.80;;;1.60;;
4323;SDS011;2175;51.018;6.994;2022-09-25T12:39:39;8.70;;;2.87;;
4323;SDS011;2175;51.018;6.994;2022-09-25T12:42:16;7.80;;;2.33;;
4323;SDS011;2175;51.018;6.994;2022-09-25T12:47:57;5.73;;;2.07;;
4323;SDS011;2175;51.018;6.994;2022-09-25T12:50:35;3.63;;;1.80;;
4323;SDS011;2175;51.018;6.994;2022-09-25T12:53:32;7.60;;;2.00;;
4323;SDS011;2175;51.018;6.994;2022-09-25T13:01:22;7.27;;;2.13;;
4323;SDS011;2175;51.018;6.994;2022-09-25T13:10:02;6.77;;;2.50;;
4323;SDS011;2175;51.018;6.994;2022-09-25T13:12:50;6.37;;;2.30;;
4323;SDS011;2175;51.018;6.994;2022-09-25T13:15:20;8.23;;;2.73;;
4323;SDS011;2175;51.018;6.994;2022-09-25T13:17:49;8.27;;;2.47;;
4323;SDS011;2175;51.018;6.994;2022-09-25T13:25:49;6.43;;;2.20;;
4323;SDS011;2175;51.018;6.994;2022-09-25T13:28:24;4.50;;;1.73;;
4323;SDS011;2175;51.018;6.994;2022-09-25T13:31:26;5.67;;;2.23;;
4323;SDS011;2175;51.018;6.994;2022-09-25T13:36:40;6.17;;;3.00;;
4323;SDS011;2175;51.018;6.994;2022-09-25T13:39:24;11.00;;;3.43;;
4323;SDS011;2175;51.018;6.994;2022-09-25T13:42:42;4.73;;;1.83;;
4323;SDS011;2175;51.018;6.994;2022-09-25T13:45:29;7.60;;;2.03;;
4323;SDS011;2175;51.018;6.994;2022-09-25T13:50:33;7.43;;;2.10;;
4323;SDS011;2175;51.018;6.994;2022-09-25T13:58:30;7.20;;;2.10;;
4323;SDS011;2175;51.018;6.994;2022-09-25T14:06:41;9.67;;;2.70;;
4323;SDS011;2175;51.018;6.994;2022-09-25T14:09:12;10.40;;;3.13;;
4323;SDS011;2175;51.018;6.994;2022-09-25T14:11:43;8.73;;;2.97;;
4323;SDS011;2175;51.018;6.994;2022-09-25T14:14:52;12.07;;;2.20;;
4323;SDS011;2175;51.018;6.994;2022-09-25T14:17:22;7.87;;;2.10;;
4323;SDS011;2175;51.018;6.994;2022-09-25T14:19:51;9.07;;;2.47;;
4323;SDS011;2175;51.018;6.994;2022-09-25T14:22:21;4.63;;;2.33;;
4323;SDS011;2175;51.018;6.994;2022-09-25T14:25:00;5.73;;;2.03;;
4323;SDS011;2175;51.018;6.994;2022-09-25T14:27:26;4.50;;;2.10;;
4323;SDS011;2175;51.018;6.994;2022-09-25T14:30:01;5.00;;;2.10;;
4323;SDS011;2175;51.018;6.994;2022-09-25T14:35:05;11.70;;;3.03;;
4323;SDS011;2175;51.018;6.994;2022-09-25T14:37:57;10.13;;;2.90;;
4323;SDS011;2175;51.018;6.994;2022-09-25T14:40:48;5.43;;;2.37;;
4323;SDS011;2175;51.018;6.994;2022-09-25T14:43:34;4.70;;;2.20;;
4323;SDS011;2175;51.018;6.994;2022-09-25T14:46:12;9.53;;;3.30;;
4323;SDS011;2175;51.018;6.994;2022-09-25T14:48:49;8.97;;;3.13;;
4323;SDS011;2175;51.018;6.994;2022-09-25T14:53:57;8.00;;;2.67;;
4323;SDS011;2175;51.018;6.994;2022-09-25T14:56:26;4.87;;;1.77;;
4323;SDS011;2175;51.018;6.994;2022-09-25T14:58:55;8.60;;;3.20;;
4323;SDS011;2175;51.018;6.994;2022-09-25T15:01:25;7.47;;;2.60;;
4323;SDS011;2175;51.018;6.994;2022-09-25T15:03:55;8.07;;;3.33;;
4323;SDS011;2175;51.018;6.994;2022-09-25T15:06:30;8.07;;;2.87;;
4323;SDS011;2175;51.018;6.994;2022-09-25T15:08:58;6.80;;;2.73;;
4323;SDS011;2175;51.018;6.994;2022-09-25T15:11:37;11.60;;;3.57;;
4323;SDS011;2175;51.018;6.994;2022-09-25T15:14:09;9.20;;;3.10;;
4323;SDS011;2175;51.018;6.994;2022-09-25T15:16:39;9.33;;;3.43;;
4323;SDS011;2175;51.018;6.994;2022-09-25T15:19:27;10.40;;;4.17;;
4323;SDS011;2175;51.018;6.994;2022-09-25T15:21:57;9.63;;;3.80;;
4323;SDS011;2175;51.018;6.994;2022-09-25T15:24:25;14.63;;;3.50;;
4323;SDS011;2175;51.018;6.994;2022-09-25T15:26:55;10.10;;;3.87;;
4323;SDS011;2175;51.018;6.994;2022-09-25T15:29:27;13.33;;;3.13;;
4323;SDS011;2175;51.018;6.994;2022-09-25T15:31:57;8.90;;;3.80;;
4323;SDS011;2175;51.018;6.994;2022-09-25T15:34:25;8.50;;;3.07;;
4323;SDS011;2175;51.018;6.994;2022-09-25T15:36:54;8.13;;;2.47;;
4323;SDS011;2175;51.018;6.994;2022-09-25T15:39:42;6.37;;;2.80;;
4323;SDS011;2175;51.018;6.994;2022-09-25T15:42:12;10.43;;;3.10;;
4323;SDS011;2175;51.018;6.994;2022-09-25T15:44:38;14.27;;;3.23;;
4323;SDS011;2175;51.018;6.994;2022-09-25T15:47:04;7.43;;;2.93;;
4323;SDS011;2175;51.018;6.994;2022-09-25T15:49:34;10.37;;;3.37;;
4323;SDS011;2175;51.018;6.994;2022-09-25T15:52:20;8.40;;;3.70;;
4323;SDS011;2175;51.018;6.994;2022-09-25T15:54:49;7.83;;;3.10;;
4323;SDS011;2175;51.018;6.994;2022-09-25T15:57:16;7.40;;;2.93;;
4323;SDS011;2175;51.018;6.994;2022-09-25T15:59:50;9.17;;;3.20;;
4323;SDS011;2175;51.018;6.994;2022-09-25T16:02:36;4.73;;;2.10;;
4323;SDS011;2175;51.018;6.994;2022-09-25T16:05:28;5.80;;;2.00;;
4323;SDS011;2175;51.018;6.994;2022-09-25T16:13:39;6.20;;;1.90;;
4323;SDS011;2175;51.018;6.994;2022-09-25T16:16:26;9.07;;;3.10;;
4323;SDS011;2175;51.018;6.994;2022-09-25T16:18:58;5.70;;;2.07;;
4323;SDS011;2175;51.018;6.994;2022-09-25T16:21:45;3.60;;;1.60;;
4323;SDS011;2175;51.018;6.994;2022-09-25T16:24:17;5.20;;;2.00;;
4323;SDS011;2175;51.018;6.994;2022-09-25T16:26:44;6.67;;;2.03;;
4323;SDS011;2175;51.018;6.994;2022-09-25T16:31:41;6.00;;;2.20;;
4323;SDS011;2175;51.018;6.994;2022-09-25T16:34:15;3.50;;;1.87;;
4323;SDS011;2175;51.018;6.994;2022-09-25T16:36:50;6.20;;;2.50;;
4323;SDS011;2175;51.018;6.994;2022-09-25T16:39:23;4.57;;;2.20;;
4323;SDS011;2175;51.018;6.994;2022-09-25T16:41:51;10.43;;;2.80;;
4323;SDS011;2175;51.018;6.994;2022-09-25T16:49:20;6.60;;;2.20;;
4323;SDS011;2175;51.018;6.994;2022-09-25T16:51:47;7.47;;;2.20;;
4323;SDS011;2175;51.018;6.994;2022-09-25T16:54:15;5.00;;;1.93;;
4323;SDS011;2175;51.018;6.994;2022-09-25T16:56:42;6.10;;;2.43;;
4323;SDS011;2175;51.018;6.994;2022-09-25T16:59:27;9.63;;;2.93;;
4323;SDS011;2175;51.018;6.994;2022-09-25T17:01:55;4.97;;;2.20;;
4323;SDS011;2175;51.018;6.994;2022-09-25T17:04:25;8.53;;;2.27;;
4323;SDS011;2175;51.018;6.994;2022-09-25T17:06:52;6.93;;;2.63;;
4323;SDS011;2175;51.018;6.994;2022-09-25T17:09:23;7.40;;;3.17;;
4323;SDS011;2175;51.018;6.994;2022-09-25T17:11:50;8.90;;;3.00;;
4323;SDS011;2175;51.018;6.994;2022-09-25T17:14:19;18.00;;;3.70;;
4323;SDS011;2175;51.018;6.994;2022-09-25T17:16:47;16.20;;;4.77;;
4323;SDS011;2175;51.018;6.994;2022-09-25T17:19:16;11.33;;;3.90;;
4323;SDS011;2175;51.018;6.994;2022-09-25T17:21:46;7.47;;;2.80;;
4323;SDS011;2175;51.018;6.994;2022-09-25T17:24:15;12.20;;;3.50;;
4323;SDS011;2175;51.018;6.994;2022-09-25T17:26:42;8.30;;;3.00;;
4323;SDS011;2175;51.018;6.994;2022-09-25T17:29:08;7.77;;;3.33;;
4323;SDS011;2175;51.018;6.994;2022-09-25T17:31:34;13.73;;;4.37;;
4323;SDS011;2175;51.018;6.994;2022-09-25T17:34:00;7.03;;;3.00;;
4323;SDS011;2175;51.018;6.994;2022-09-25T17:36:26;5.73;;;2.40;;
4323;SDS011;2175;51.018;6.994;2022-09-25T17:38:52;5.03;;;1.90;;
4323;SDS011;2175;51.018;6.994;2022-09-25T17:43:49;8.47;;;2.77;;
4323;SDS011;2175;51.018;6.994;2022-09-25T17:46:16;28.93;;;7.43;;
4323;SDS011;2175;51.018;6.994;2022-09-25T17:48:45;16.07;;;5.13;;
4323;SDS011;2175;51.018;6.994;2022-09-25T17:51:18;18.33;;;4.87;;
4323;SDS011;2175;51.018;6.994;2022-09-25T17:53:48;4.93;;;2.27;;
4323;SDS011;2175;51.018;6.994;2022-09-25T17:56:14;5.57;;;2.00;;
4323;SDS011;2175;51.018;6.994;2022-09-25T17:58:40;7.07;;;2.03;;
4323;SDS011;2175;51.018;6.994;2022-09-25T18:01:10;5.60;;;2.17;;
4323;SDS011;2175;51.018;6.994;2022-09-25T18:03:46;4.03;;;1.97;;
4323;SDS011;2175;51.018;6.994;2022-09-25T18:06:13;6.27;;;2.03;;
4323;SDS011;2175;51.018;6.994;2022-09-25T18:08:38;9.10;;;2.70;;
4323;SDS011;2175;51.018;6.994;2022-09-25T18:11:04;5.00;;;2.53;;